Kanorado, KS (67741)

9:51 AM MDT on July 24, 2014 (GMT -0600)
Leonard Farms (KKSGOODL7) Elev 3799 ft | 39.52 °N, 101.93 °W | Change Station
Active Advisory: Special Statement Active Notice: Public Information Statement

Current weather conditions updated 10 seconds ago

Clear
Clear
90.1 °F
Feels Like 88 °F
N
21.3
Wind Variable Wind from SW
Gusts 24.8 mph

Today is forecast to be Much Warmer than yesterday.

Today
High -- | Low -- °F
--% Chance of Precip.
Yesterday
High -- | Low -- °F
Precip. -- in
5:41 AM 8:07 PM
Waning Crescent, 5% visible
Pressure 29.92 in
Visibility 10.0 miles
Clouds Clear
Heat Index 88 °F
Dew Point 54 °F
Humidity 29%
Rainfall 0.00 in
Snow Depth Not available.
UV 4 out of 12
Pollen 7.30 out of 12
Air Quality Not available.
Flu Activity Not available.
METAR KITR 241453Z AUTO 22012KT 10SM CLR 28/13 A3011 RMK AO2 SLP130 T02830133 58003

More Conditions Fewer Conditions

Pressure 29.92 in
Visibility 10.0 miles
Clouds Clear
Heat Index 88 °F
Dew Point 54 °F
Humidity 29%
Rainfall 0.00 in
Snow Depth Not available.
UV 4 out of 12
Pollen 7.30 out of 12
Air Quality Not available.
Flu Activity Not available.
METAR KITR 241453Z AUTO 22012KT 10SM CLR 28/13 A3011 RMK AO2 SLP130 T02830133 58003

More Conditions Fewer Conditions

10-Day Weather Forecast

Almanac

Astronomy

Jul. 24, 2014 Rise Set
Actual Time 5:41 AM MDT 8:07 PM MDT
Civil Twilight 5:10 AM MDT 8:38 PM MDT
Nautical Twilight 4:32 AM MDT 9:16 PM MDT
Astronomical Twilight 3:50 AM MDT 9:58 PM MDT
Moon 3:50 AM MDT 6:24 PM MDT
Length of Visible Light 15h 27m
Length of Day
14h 26m
Tomorrow will be 1m 42s shorter.
Waning Crescent, 5% of the Moon is Illuminated
Today
Waning Crescent
Jul 26
New
Aug 3
First Quarter
Aug 10
Full
Aug 17
Last Quarter

Today's Extremes

State Highs State Lows

Community

WunderPhotos

Upload Photos

1,737,042 photos uploaded!

Nearby

Snow Depth

Station Depth Elevation
No new snow has been reported.

Earthquake Activity

City Distance Mag. Time & Date
No recent earthquake activity has been reported nearby.
Minimum magnitude displayed is 2.5.

Coastal Water Temperatures

Place Temperature
No Stations Reporting

Nearby Weather Stations

Station Location Temp. Heat Index Dew Point Humidity Wind Precip. Elev Updated Type
Leonard Farms, Goodland, KS 90.1 °F 88 °F 54 °F 29% SW  at  21.3 mph 0.00 in / hr 3799 ft 9:51 AM MDT Rapid Fire
City of Gld Backyard Station, Goodland, KS 87.4 °F 89 °F 65 °F 47% SW  at  6.3 mph - / hr 3711 ft 9:47 AM MDT Normal
Beaver Creek Weather, Goodland, KS 89.7 °F 91 °F 63 °F 41% SSW  at  14.0 mph 0.00 in / hr 3450 ft 9:51 AM MDT Rapid Fire

Show More Stations Show Fewer Stations